createdAt,value
2022-07-26T00:02:22.719Z,100539.84
2022-07-26T00:04:49.273Z,100542.16
2022-07-26T00:07:15.760Z,100541.69
2022-07-26T00:09:47.794Z,100539.44
2022-07-26T00:12:14.676Z,100543.16
2022-07-26T00:14:41.139Z,100542.19
2022-07-26T00:17:07.623Z,100542.59
2022-07-26T00:19:34.083Z,100540.88
2022-07-26T00:22:18.916Z,100536.63
2022-07-26T00:24:45.400Z,100532.97
2022-07-26T00:27:11.811Z,100536.81
2022-07-26T00:29:38.233Z,100533.06
2022-07-26T00:32:05.074Z,100534.03
2022-07-26T00:34:31.694Z,100532.06
2022-07-26T00:36:58.101Z,100534.78
2022-07-26T00:39:24.581Z,100536.75
2022-07-26T00:41:51.019Z,100528.50
2022-07-26T00:44:17.583Z,100530.34
2022-07-26T00:46:44.448Z,100535.22
2022-07-26T00:49:11.875Z,100527.19
2022-07-26T00:51:38.910Z,100533.53
2022-07-26T00:54:05.938Z,100531.19
2022-07-26T00:56:33.927Z,100537.09
2022-07-26T00:59:00.882Z,100532.97
2022-07-26T01:01:27.822Z,100531.72
2022-07-26T01:03:54.834Z,100540.31
2022-07-26T01:06:26.715Z,100532.44
2022-07-26T01:08:53.774Z,100537.22
2022-07-26T01:11:20.191Z,100536.31
2022-07-26T01:13:50.263Z,100542.28
2022-07-26T01:16:17.714Z,100540.34
2022-07-26T01:18:44.685Z,100540.63
2022-07-26T01:21:13.594Z,100535.66
2022-07-26T01:23:41.740Z,100537.66
2022-07-26T01:26:08.211Z,100534.63
2022-07-26T01:28:38.959Z,100528.50
2022-07-26T01:31:06.390Z,100530.56
2022-07-26T01:33:34.341Z,100536.22
2022-07-26T01:36:01.190Z,100533.84
2022-07-26T01:38:27.623Z,100533.16
2022-07-26T01:40:54.194Z,100540.50
2022-07-26T01:43:20.609Z,100536.44
2022-07-26T01:45:47.255Z,100539.81
2022-07-26T01:48:13.697Z,100534.22
2022-07-26T01:50:40.141Z,100540.88
2022-07-26T01:53:06.662Z,100550.72
2022-07-26T01:55:33.172Z,100549.19
2022-07-26T01:58:00.506Z,100548.94
2022-07-26T02:00:27.015Z,100553.97
2022-07-26T02:02:53.467Z,100549.72
2022-07-26T02:05:20.105Z,100548.22
2022-07-26T02:07:46.510Z,100546.81
2022-07-26T02:10:14.521Z,100544.72
2022-07-26T02:12:41.462Z,100551.59
2022-07-26T02:15:09.648Z,100544.13
2022-07-26T02:17:36.101Z,100549.72
2022-07-26T02:20:02.671Z,100550.50
2022-07-26T02:22:29.136Z,100552.31
2022-07-26T02:24:55.595Z,100548.16
2022-07-26T02:27:22.109Z,100540.94
2022-07-26T02:29:48.682Z,100554.09
2022-07-26T02:32:15.101Z,100549.28
2022-07-26T02:34:41.594Z,100552.09
2022-07-26T02:37:08.262Z,100547.81
2022-07-26T02:39:34.997Z,100557.09
2022-07-26T02:42:03.142Z,100549.00
2022-07-26T02:44:30.480Z,100556.69
2022-07-26T02:46:57.013Z,100549.75
2022-07-26T02:49:23.513Z,100556.03
2022-07-26T02:51:50.068Z,100553.28
2022-07-26T02:54:16.674Z,100554.00
2022-07-26T02:56:43.069Z,100555.56
2022-07-26T02:59:09.550Z,100554.16
2022-07-26T03:01:36.110Z,100558.06
2022-07-26T03:04:03.539Z,100567.09
2022-07-26T03:06:29.977Z,100568.53
2022-07-26T03:08:56.758Z,100567.25
2022-07-26T03:11:23.267Z,100567.09
2022-07-26T03:13:49.657Z,100553.44
2022-07-26T03:16:18.911Z,100560.91
2022-07-26T03:18:49.190Z,100562.34
2022-07-26T03:21:15.595Z,100570.63
2022-07-26T03:23:42.015Z,100575.06
2022-07-26T03:26:08.855Z,100580.69
2022-07-26T03:28:35.462Z,100575.84
2022-07-26T03:31:02.493Z,100572.94
2022-07-26T03:33:30.035Z,100575.63
2022-07-26T03:35:56.507Z,100583.06
2022-07-26T03:38:22.929Z,100578.63
2022-07-26T03:40:49.474Z,100581.72
2022-07-26T03:43:16.758Z,100583.53
2022-07-26T03:45:45.728Z,100596.38
2022-07-26T03:48:12.186Z,100592.84
2022-07-26T03:50:39.364Z,100592.16
2022-07-26T03:53:05.910Z,100598.47
2022-07-26T03:55:50.744Z,100600.47
2022-07-26T03:58:19.039Z,100596.69
2022-07-26T04:00:46.180Z,100594.94
2022-07-26T04:03:12.833Z,100606.47
2022-07-26T04:05:39.271Z,100604.66
2022-07-26T04:08:06.044Z,100612.47
2022-07-26T04:10:32.458Z,100612.81
2022-07-26T04:12:58.875Z,100615.00
2022-07-26T04:15:25.295Z,100620.44
2022-07-26T04:17:51.745Z,100618.97
2022-07-26T04:20:18.186Z,100626.00
2022-07-26T04:22:45.077Z,100626.19
2022-07-26T04:25:11.583Z,100632.75
2022-07-26T04:27:38.068Z,100631.59
2022-07-26T04:30:08.540Z,100640.09
2022-07-26T04:32:39.170Z,100654.44
2022-07-26T04:35:05.983Z,100665.88
2022-07-26T04:37:39.045Z,100673.59
2022-07-26T04:40:06.200Z,100677.53
2022-07-26T04:42:32.623Z,100687.78
2022-07-26T04:45:02.018Z,100682.38
2022-07-26T04:47:30.962Z,100694.38
2022-07-26T04:49:57.541Z,100697.06
2022-07-26T04:52:24.220Z,100693.16
2022-07-26T04:54:50.658Z,100700.00
2022-07-26T04:57:17.138Z,100704.09
2022-07-26T04:59:43.563Z,100698.84
2022-07-26T05:02:10.123Z,100696.81
2022-07-26T05:07:18.501Z,100708.84
2022-07-26T05:09:45.002Z,100704.34
2022-07-26T05:12:11.455Z,100710.88
2022-07-26T05:14:37.899Z,100715.03
2022-07-26T05:17:05.014Z,100714.16
2022-07-26T05:19:47.440Z,100716.97
2022-07-26T05:22:18.656Z,100724.06
2022-07-26T05:24:45.085Z,100727.00
2022-07-26T05:27:11.514Z,100725.16
2022-07-26T05:30:00.018Z,100725.34
2022-07-26T05:32:28.091Z,100734.09
2022-07-26T05:34:54.624Z,100727.13
2022-07-26T05:37:21.090Z,100726.31
2022-07-26T05:39:47.524Z,100724.09
2022-07-26T05:46:30.459Z,100723.50
2022-07-26T05:48:56.960Z,100723.94
2022-07-26T05:51:23.524Z,100720.78
2022-07-26T05:53:49.971Z,100712.59
2022-07-26T05:56:16.416Z,100723.91
2022-07-26T05:58:42.854Z,100723.13
2022-07-26T06:01:09.339Z,100721.06
2022-07-26T06:03:42.165Z,100723.97
2022-07-26T06:06:08.844Z,100708.00
2022-07-26T06:08:36.145Z,100718.34
2022-07-26T06:11:05.787Z,100711.88
2022-07-26T06:13:32.265Z,100717.44
2022-07-26T06:15:58.722Z,100716.34
2022-07-26T06:18:25.197Z,100716.34
2022-07-26T06:20:51.642Z,100721.19
2022-07-26T06:23:18.047Z,100722.34
2022-07-26T06:26:00.275Z,100720.47
2022-07-26T06:28:26.705Z,100721.03
2022-07-26T06:30:53.674Z,100713.34
2022-07-26T06:33:20.198Z,100710.06
2022-07-26T06:35:46.828Z,100718.34
2022-07-26T06:38:13.297Z,100711.19
2022-07-26T06:40:39.810Z,100713.53
2022-07-26T06:43:06.376Z,100716.25
2022-07-26T06:49:41.360Z,100714.63
2022-07-26T06:53:04.534Z,100718.75
2022-07-26T06:55:31.040Z,100718.25
2022-07-26T06:57:57.817Z,100720.88
2022-07-26T07:00:24.424Z,100725.81
2022-07-26T07:03:22.884Z,100717.31
2022-07-26T07:05:50.158Z,100712.13
2022-07-26T07:08:16.963Z,100717.38
2022-07-26T07:10:48.869Z,100706.22
2022-07-26T07:13:17.607Z,100721.78
2022-07-26T07:15:44.161Z,100714.69
2022-07-26T07:18:10.764Z,100717.63
2022-07-26T07:20:38.365Z,100710.38
2022-07-26T07:23:04.792Z,100712.56
2022-07-26T07:25:31.311Z,100717.06
2022-07-26T07:27:58.244Z,100723.56
2022-07-26T07:30:24.817Z,100721.63
2022-07-26T07:32:55.537Z,100736.78
2022-07-26T07:35:23.134Z,100739.88
2022-07-26T07:37:52.722Z,100735.81
2022-07-26T07:40:36.185Z,100731.44
2022-07-26T07:43:02.583Z,100727.63
2022-07-26T07:46:08.277Z,100737.00
2022-07-26T07:48:53.764Z,100733.16
2022-07-26T07:51:28.018Z,100731.09
2022-07-26T07:53:57.370Z,100743.03
2022-07-26T07:56:42.864Z,100731.63
2022-07-26T07:59:10.471Z,100731.44
2022-07-26T08:01:40.589Z,100738.63
2022-07-26T08:04:29.735Z,100735.38
2022-07-26T08:06:56.189Z,100734.69
2022-07-26T08:09:23.938Z,100732.88
2022-07-26T08:11:50.904Z,100725.78
2022-07-26T08:14:18.416Z,100727.09
2022-07-26T08:16:45.055Z,100714.59
2022-07-26T08:19:11.927Z,100727.63
2022-07-26T08:21:38.613Z,100718.69
2022-07-26T08:24:34.424Z,100710.59
2022-07-26T08:27:00.930Z,100712.03
2022-07-26T08:29:28.118Z,100708.91
2022-07-26T08:31:54.735Z,100707.47
2022-07-26T08:34:30.944Z,100705.34
2022-07-26T08:37:15.914Z,100709.44
2022-07-26T08:39:43.252Z,100710.91
2022-07-26T08:42:16.584Z,100713.97
2022-07-26T08:44:50.978Z,100723.28
2022-07-26T08:47:35.405Z,100719.75
2022-07-26T08:50:04.801Z,100725.47
2022-07-26T08:52:44.603Z,100718.75
2022-07-26T08:55:15.063Z,100718.13
2022-07-26T08:57:41.771Z,100717.41
2022-07-26T09:00:18.027Z,100702.72
2022-07-26T09:02:44.842Z,100698.25
2022-07-26T09:05:11.719Z,100699.19
2022-07-26T09:07:40.119Z,100703.91
2022-07-26T09:10:39.042Z,100698.53
2022-07-26T09:20:51.849Z,100713.91
2022-07-26T09:23:21.646Z,100714.31
2022-07-26T09:25:48.281Z,100716.44
2022-07-26T09:32:17.175Z,100723.56
2022-07-26T09:34:58.326Z,100718.53
2022-07-26T09:41:30.613Z,100734.03
2022-07-26T09:44:03.959Z,100737.25
2022-07-26T09:46:40.036Z,100740.63
2022-07-26T09:49:18.116Z,100741.03
2022-07-26T09:51:47.093Z,100732.13
2022-07-26T09:54:38.095Z,100712.72
2022-07-26T09:57:04.634Z,100723.16
2022-07-26T09:59:31.120Z,100725.38
2022-07-26T10:02:00.659Z,100730.25
2022-07-26T10:08:07.957Z,100753.66
2022-07-26T10:10:46.906Z,100769.28
2022-07-26T10:13:13.865Z,100776.34
2022-07-26T10:15:50.761Z,100769.59
2022-07-26T10:18:39.323Z,100782.72
2022-07-26T10:21:19.654Z,100791.19
2022-07-26T10:24:14.099Z,100791.47
2022-07-26T10:26:45.430Z,100796.53
2022-07-26T10:29:26.093Z,100806.41
2022-07-26T10:31:55.794Z,100799.59
2022-07-26T10:34:39.411Z,100805.84
2022-07-26T10:37:08.474Z,100815.19
2022-07-26T10:39:36.400Z,100816.41
2022-07-26T10:42:08.596Z,100819.63
2022-07-26T10:44:39.568Z,100829.88
2022-07-26T10:47:09.013Z,100836.44
2022-07-26T10:50:16.118Z,100839.59
2022-07-26T10:52:58.801Z,100843.47
2022-07-26T10:56:03.312Z,100851.94
2022-07-26T10:58:43.157Z,100846.34
2022-07-26T11:01:09.708Z,100852.22
2022-07-26T11:03:41.273Z,100854.34
2022-07-26T11:06:15.852Z,100845.72
2022-07-26T11:08:48.167Z,100856.44
2022-07-26T11:11:27.897Z,100857.88
2022-07-26T11:14:15.344Z,100858.22
2022-07-26T11:16:52.151Z,100857.75
2022-07-26T11:19:24.635Z,100863.38
2022-07-26T11:21:58.885Z,100851.84
2022-07-26T11:24:26.751Z,100850.97
2022-07-26T11:27:04.197Z,100854.44
2022-07-26T11:29:38.471Z,100845.97
2022-07-26T11:32:17.636Z,100849.47
2022-07-26T11:35:05.383Z,100855.25
2022-07-26T11:37:31.865Z,100856.44
2022-07-26T11:39:58.318Z,100860.28
2022-07-26T11:42:24.848Z,100860.13
2022-07-26T11:44:53.526Z,100858.19
2022-07-26T11:47:30.291Z,100857.78
2022-07-26T11:50:23.079Z,100868.19
2022-07-26T11:52:50.183Z,100875.16
2022-07-26T11:55:31.193Z,100884.63
2022-07-26T11:58:07.067Z,100905.75
2022-07-26T12:00:33.582Z,100907.44
2022-07-26T12:03:00.034Z,100901.16
2022-07-26T12:05:27.591Z,100902.06
2022-07-26T12:07:59.570Z,100904.69
2022-07-26T12:10:37.292Z,100897.63
2022-07-26T12:13:24.390Z,100909.59
2022-07-26T12:15:52.285Z,100906.41
2022-07-26T12:18:29.927Z,100908.78
2022-07-26T12:21:15.518Z,100901.09
2022-07-26T12:23:48.166Z,100890.00
2022-07-26T12:26:27.134Z,100888.50
2022-07-26T12:28:54.975Z,100889.47
2022-07-26T12:31:23.314Z,100890.88
2022-07-26T12:33:50.197Z,100891.88
2022-07-26T12:36:27.906Z,100877.81
2022-07-26T12:38:56.667Z,100889.66
2022-07-26T12:41:36.222Z,100874.44
2022-07-26T12:44:03.582Z,100863.34
2022-07-26T12:46:32.832Z,100865.13
2022-07-26T12:49:00.719Z,100867.81
2022-07-26T12:51:27.675Z,100876.19
2022-07-26T12:53:54.140Z,100881.13
2022-07-26T12:56:23.519Z,100875.97
2022-07-26T12:58:49.972Z,100877.59
2022-07-26T13:01:16.659Z,100883.00
2022-07-26T13:03:43.396Z,100878.53
2022-07-26T13:06:10.056Z,100874.84
2022-07-26T13:08:36.541Z,100879.91
2022-07-26T13:11:03.234Z,100876.78
2022-07-26T13:13:29.870Z,100883.81
2022-07-26T13:15:56.429Z,100882.59
2022-07-26T13:18:22.929Z,100887.94
2022-07-26T13:20:49.356Z,100889.53
2022-07-26T13:23:18.410Z,100894.03
2022-07-26T13:25:48.776Z,100892.03
2022-07-26T13:28:16.894Z,100894.53
2022-07-26T13:30:43.714Z,100898.31
2022-07-26T13:33:10.374Z,100907.47
2022-07-26T13:35:41.052Z,100900.66
2022-07-26T13:38:08.025Z,100907.00
2022-07-26T13:40:34.486Z,100911.97
2022-07-26T13:43:00.971Z,100908.56
2022-07-26T13:45:29.298Z,100913.13
2022-07-26T13:47:57.257Z,100909.59
2022-07-26T13:50:25.530Z,100895.47
2022-07-26T13:53:06.199Z,100883.75
2022-07-26T13:55:32.634Z,100884.94
2022-07-26T13:57:59.085Z,100880.41
2022-07-26T14:00:27.346Z,100879.78
2022-07-26T14:02:55.024Z,100875.56
2022-07-26T14:05:21.632Z,100873.78
2022-07-26T14:07:48.074Z,100878.28
2022-07-26T14:10:14.514Z,100884.38
2022-07-26T14:12:41.096Z,100881.81
2022-07-26T14:15:16.632Z,100885.66
2022-07-26T14:17:47.526Z,100884.59
2022-07-26T14:20:14.891Z,100886.91
2022-07-26T14:22:41.445Z,100890.16
2022-07-26T14:25:08.339Z,100897.63
2022-07-26T14:27:34.843Z,100888.59
2022-07-26T14:30:01.302Z,100888.50
2022-07-26T14:32:27.761Z,100908.75
2022-07-26T14:34:54.248Z,100909.31
2022-07-26T14:37:42.483Z,100914.47
2022-07-26T14:40:07.843Z,100909.41
2022-07-26T14:42:34.314Z,100911.38
2022-07-26T14:45:00.755Z,100916.34
2022-07-26T14:47:27.224Z,100914.25
2022-07-26T14:49:53.865Z,100923.09
2022-07-26T14:52:20.397Z,100929.66
2022-07-26T14:54:46.898Z,100927.03
2022-07-26T14:57:13.332Z,100918.13
2022-07-26T14:59:39.756Z,100927.94
2022-07-26T15:02:06.380Z,100933.91
2022-07-26T15:04:32.947Z,100921.59
2022-07-26T15:07:00.314Z,100916.97
2022-07-26T15:09:26.778Z,100916.94
2022-07-26T15:11:53.406Z,100927.25
2022-07-26T15:14:19.845Z,100918.00
2022-07-26T15:16:46.673Z,100923.44
2022-07-26T15:19:13.348Z,100916.44
2022-07-26T15:21:39.810Z,100912.44
2022-07-26T15:24:06.428Z,100912.84
2022-07-26T15:26:32.951Z,100912.66
2022-07-26T15:28:59.436Z,100909.97
2022-07-26T15:31:36.615Z,100909.91
2022-07-26T15:34:04.153Z,100917.06
2022-07-26T15:36:30.579Z,100902.22
2022-07-26T15:39:01.993Z,100910.28
2022-07-26T15:41:41.123Z,100914.38
2022-07-26T15:44:10.066Z,100919.13
2022-07-26T15:46:39.013Z,100919.97
2022-07-26T15:49:06.481Z,100916.47
2022-07-26T15:51:33.016Z,100924.31
2022-07-26T15:53:59.708Z,100918.72
2022-07-26T15:56:26.195Z,100924.97
2022-07-26T15:58:52.676Z,100916.31
2022-07-26T16:01:19.301Z,100916.69
2022-07-26T16:03:47.475Z,100923.16
2022-07-26T16:06:13.901Z,100925.34
2022-07-26T16:08:59.013Z,100925.59
2022-07-26T16:11:30.494Z,100933.16
2022-07-26T16:14:01.710Z,100931.56
2022-07-26T16:16:30.117Z,100952.81
2022-07-26T16:18:56.837Z,100942.63
2022-07-26T16:21:23.466Z,100943.03
2022-07-26T16:23:50.860Z,100945.41
2022-07-26T16:26:17.744Z,100948.41
2022-07-26T16:28:44.323Z,100944.03
2022-07-26T16:31:10.789Z,100954.00
2022-07-26T16:33:37.971Z,100946.19
2022-07-26T16:36:12.772Z,100952.59
2022-07-26T16:38:39.383Z,100947.91
2022-07-26T16:41:06.047Z,100938.28
2022-07-26T16:43:32.582Z,100942.34
2022-07-26T16:45:59.122Z,100934.50
2022-07-26T16:48:25.775Z,100941.22
2022-07-26T16:50:52.243Z,100941.97
2022-07-26T16:53:18.836Z,100939.41
2022-07-26T16:55:47.019Z,100939.41
2022-07-26T16:58:13.456Z,100933.38
2022-07-26T17:00:40.138Z,100945.69
2022-07-26T17:03:06.795Z,100947.34
2022-07-26T17:05:33.234Z,100946.28
2022-07-26T17:07:59.733Z,100940.56
2022-07-26T17:10:26.409Z,100943.91
2022-07-26T17:12:53.802Z,100956.06
2022-07-26T17:15:20.254Z,100950.09
2022-07-26T17:17:48.864Z,100952.44
2022-07-26T17:20:16.217Z,100953.63
2022-07-26T17:22:42.846Z,100956.06
2022-07-26T17:25:09.687Z,100955.19
2022-07-26T17:27:36.369Z,100953.91
2022-07-26T17:30:07.024Z,100954.38
2022-07-26T17:32:34.507Z,100953.63
2022-07-26T17:35:01.029Z,100955.38
2022-07-26T17:37:27.459Z,100953.44
2022-07-26T17:39:55.273Z,100949.41
2022-07-26T17:42:24.100Z,100956.91
2022-07-26T17:44:51.262Z,100954.19
2022-07-26T17:47:29.101Z,100950.44
2022-07-26T17:52:48.770Z,100959.84
2022-07-26T17:55:15.686Z,100958.63
2022-07-26T17:57:42.399Z,100962.06
2022-07-26T18:00:09.514Z,100958.47
2022-07-26T18:02:36.164Z,100960.91
2022-07-26T18:05:03.238Z,100960.06
2022-07-26T18:07:29.898Z,100967.84
2022-07-26T18:09:56.323Z,100972.34
2022-07-26T18:12:22.970Z,100971.44
2022-07-26T18:14:49.604Z,100969.16
2022-07-26T18:21:03.319Z,100972.97
2022-07-26T18:23:29.773Z,100959.69
2022-07-26T18:29:43.302Z,100965.25
2022-07-26T18:32:09.984Z,100958.88
2022-07-26T18:34:36.543Z,100952.75
2022-07-26T18:37:03.075Z,100949.66
2022-07-26T18:39:32.647Z,100954.59
2022-07-26T18:41:59.937Z,100947.22
2022-07-26T18:44:38.752Z,100946.91
2022-07-26T18:47:05.971Z,100957.13
2022-07-26T18:49:33.230Z,100952.75
2022-07-26T18:52:08.198Z,100956.13
2022-07-26T18:54:35.854Z,100958.97
2022-07-26T18:57:02.358Z,100961.72
2022-07-26T18:59:29.673Z,100968.97
2022-07-26T19:01:57.686Z,100969.38
2022-07-26T19:04:25.105Z,100971.25
2022-07-26T19:06:52.022Z,100971.72
2022-07-26T19:09:18.569Z,100976.59
2022-07-26T19:11:47.919Z,100984.09
2022-07-26T19:14:29.743Z,100985.31
2022-07-26T19:16:56.240Z,100984.75
2022-07-26T19:19:22.790Z,100988.22
2022-07-26T19:21:49.369Z,100987.16
2022-07-26T19:24:15.898Z,100984.28
2022-07-26T19:26:42.327Z,100986.69
2022-07-26T19:29:09.198Z,100986.00
2022-07-26T19:31:36.819Z,100989.59
2022-07-26T19:34:04.088Z,100984.84
2022-07-26T19:36:30.546Z,100998.88
2022-07-26T19:38:57.634Z,101007.66
2022-07-26T19:41:25.203Z,101006.31
2022-07-26T19:43:51.695Z,101009.44
2022-07-26T19:46:18.369Z,101010.13
2022-07-26T19:48:45.017Z,101012.75
2022-07-26T19:51:11.602Z,101013.72
2022-07-26T19:53:38.021Z,101013.72
2022-07-26T19:56:04.962Z,101015.28
2022-07-26T19:58:31.525Z,101016.22
2022-07-26T20:00:58.146Z,101021.72
2022-07-26T20:03:24.619Z,101019.91
2022-07-26T20:05:53.339Z,101026.75
2022-07-26T20:08:19.763Z,101027.81
2022-07-26T20:10:46.215Z,101017.97
2022-07-26T20:13:13.356Z,101022.38
2022-07-26T20:15:40.012Z,101034.06
2022-07-26T20:18:06.477Z,101037.59
2022-07-26T20:20:32.999Z,101041.09
2022-07-26T20:26:46.415Z,101034.00
2022-07-26T20:29:13.224Z,101030.63
2022-07-26T20:31:39.958Z,101034.34
2022-07-26T20:34:06.413Z,101034.81
2022-07-26T20:36:32.873Z,101037.59
2022-07-26T20:39:00.375Z,101027.94
2022-07-26T20:41:26.914Z,101033.78
2022-07-26T20:44:00.529Z,101038.81
2022-07-26T20:46:27.037Z,101047.41
2022-07-26T20:48:54.009Z,101040.50
2022-07-26T20:55:01.215Z,101045.19
2022-07-26T20:57:27.845Z,101048.84
2022-07-26T20:59:54.290Z,101053.63
2022-07-26T21:02:21.181Z,101060.69
2022-07-26T21:04:47.689Z,101060.22
2022-07-26T21:07:14.117Z,101054.44
2022-07-26T21:09:40.545Z,101065.78
2022-07-26T21:12:07.481Z,101067.94
2022-07-26T21:14:34.103Z,101069.34
2022-07-26T21:20:47.707Z,101073.69
2022-07-26T21:23:17.667Z,101082.03
2022-07-26T21:25:44.774Z,101078.84
2022-07-26T21:28:11.205Z,101070.81
2022-07-26T21:30:37.661Z,101072.22
2022-07-26T21:33:04.157Z,101075.28
2022-07-26T21:35:32.036Z,101091.13
2022-07-26T21:37:58.499Z,101083.06
2022-07-26T21:40:25.662Z,101075.47
2022-07-26T21:42:52.125Z,101088.78
2022-07-26T21:45:19.075Z,101093.19
2022-07-26T21:47:45.539Z,101090.66
2022-07-26T21:50:12.261Z,101099.34
2022-07-26T21:52:38.811Z,101101.88
2022-07-26T21:55:05.835Z,101107.09
2022-07-26T21:57:32.320Z,101111.22
2022-07-26T21:59:59.506Z,101115.88
2022-07-26T22:02:26.267Z,101112.00
2022-07-26T22:04:52.755Z,101104.47
2022-07-26T22:07:19.210Z,101111.53
2022-07-26T22:09:45.698Z,101110.88
2022-07-26T22:12:12.146Z,101121.75
2022-07-26T22:14:38.636Z,101127.38
2022-07-26T22:17:05.096Z,101131.50
2022-07-26T22:19:31.528Z,101130.59
2022-07-26T22:21:57.968Z,101123.41
2022-07-26T22:24:24.471Z,101126.72
2022-07-26T22:26:50.913Z,101120.66
2022-07-26T22:29:17.377Z,101128.47
2022-07-26T22:31:43.922Z,101126.66
2022-07-26T22:38:01.978Z,101127.78
2022-07-26T22:40:28.526Z,101125.31
2022-07-26T22:42:58.446Z,101136.28
2022-07-26T22:45:26.382Z,101133.41
2022-07-26T22:47:56.469Z,101132.00
2022-07-26T22:50:23.583Z,101125.63
2022-07-26T22:52:51.877Z,101132.53
2022-07-26T22:55:18.375Z,101129.81
2022-07-26T22:57:45.162Z,101137.56
2022-07-26T23:00:13.366Z,101133.31
2022-07-26T23:02:39.953Z,101138.16
2022-07-26T23:05:07.095Z,101134.31
2022-07-26T23:07:35.173Z,101129.13
2022-07-26T23:10:01.776Z,101133.09
2022-07-26T23:12:28.627Z,101146.00
2022-07-26T23:14:55.190Z,101131.66
2022-07-26T23:17:21.636Z,101126.41
2022-07-26T23:19:48.185Z,101132.75
2022-07-26T23:22:14.761Z,101129.34
2022-07-26T23:24:41.307Z,101130.16
2022-07-26T23:27:10.339Z,101139.69
2022-07-26T23:29:37.248Z,101135.53
2022-07-26T23:32:03.827Z,101133.72
2022-07-26T23:34:30.274Z,101136.50
2022-07-26T23:36:56.759Z,101131.84
2022-07-26T23:39:23.226Z,101133.50
2022-07-26T23:41:49.796Z,101131.53
2022-07-26T23:44:16.272Z,101128.06
2022-07-26T23:46:42.795Z,101127.44
2022-07-26T23:49:10.214Z,101132.59
2022-07-26T23:51:38.780Z,101134.31
2022-07-26T23:54:05.824Z,101138.53
2022-07-26T23:56:32.340Z,101136.28
2022-07-26T23:58:58.771Z,101139.22
